Terminal Aerodrome Forecast
Issued by NWS North Platte, NE

Home | Current Version | Previous Version | Text Only | Print | Product List | Glossary Off
Versions: 1 2 3 4 5 6 7 8 9 10 11 12 13 14 15 16 17

000
FTUS43 KLBF 250500
TAFVTN
TAF
KVTN 250520Z 2506/2606 34014KT P6SM BKN100
     FM250900 02010KT P6SM -SHRA BKN012
     FM251500 05007KT P6SM BKN015
     FM251800 05008KT P6SM BKN025
     FM252200 08010KT P6SM BKN050=

USA.gov is the U.S. government's official web portal to all federal, state and local government web resources and services.